Time;durP1;ratioP1;P1;durP2;ratioP2;P2;SDS_P1;SDS_P2;PMS_P1;PMS_P2;Temp;Humidity;BMP_temperature;BMP_pressure;BME280_temperature;BME280_humidity;BME280_pressure;Samples;Min_cycle;Max_cycle;Signal;HPM_P1;HPM_P2
2022/03/07 00:00:08;;;;;;;9.80;6.30;;;3.40;1.00;;;;;;5093265;28;20186;-55
2022/03/07 00:02:34;;;;;;;8.47;7.10;;;3.50;1.00;;;;;;5093433;28;20182;-53
2022/03/07 00:04:59;;;;;;;7.17;6.43;;;3.50;1.00;;;;;;5093308;28;20460;-55
2022/03/07 00:07:25;;;;;;;9.27;6.40;;;3.50;1.00;;;;;;5092743;28;20661;-54
2022/03/07 00:09:50;;;;;;;6.60;6.00;;;3.50;1.00;;;;;;5092314;28;20460;-56
2022/03/07 00:12:16;;;;;;;7.50;6.80;;;3.50;1.00;;;;;;5096433;28;20215;-55
2022/03/07 00:14:42;;;;;;;7.17;6.20;;;;;;;;;;5091350;28;20202;-59
2022/03/07 00:17:07;;;;;;;6.63;6.03;;;3.40;1.00;;;;;;5091835;28;20202;-57
2022/03/07 00:19:33;;;;;;;7.43;6.50;;;;;;;;;;5090008;28;20498;-55
2022/03/07 00:21:59;;;;;;;7.00;6.27;;;3.40;1.00;;;;;;5092125;28;20670;-56
2022/03/07 00:24:24;;;;;;;6.47;5.87;;;3.40;1.00;;;;;;5092455;28;20472;-56
2022/03/07 00:26:50;;;;;;;6.93;6.23;;;;;;;;;;5090078;28;20194;-53
2022/03/07 00:29:17;;;;;;;6.33;5.63;;;3.40;1.00;;;;;;5092189;28;20278;-55
2022/03/07 00:31:44;;;;;;;8.33;6.03;;;3.40;1.00;;;;;;5089322;28;20472;-53
2022/03/07 00:34:09;;;;;;;7.30;6.33;;;3.40;1.00;;;;;;5089169;28;20457;-55
2022/03/07 00:36:35;;;;;;;7.47;6.67;;;3.30;1.00;;;;;;5091196;28;20996;-54
2022/03/07 00:39:01;;;;;;;9.37;6.27;;;3.20;1.00;;;;;;5089674;28;20245;-57
2022/03/07 00:41:26;;;;;;;7.57;6.33;;;3.20;1.00;;;;;;5094124;28;20286;-54
2022/03/07 00:43:52;;;;;;;8.00;5.83;;;3.20;1.00;;;;;;5101932;27;20210;-52
2022/03/07 00:46:17;;;;;;;10.33;6.90;;;3.30;1.00;;;;;;5091241;28;20189;-55
2022/03/07 00:48:43;;;;;;;8.00;6.80;;;3.40;1.00;;;;;;5089762;28;20179;-52
2022/03/07 00:51:08;;;;;;;10.70;7.27;;;3.40;1.00;;;;;;5091480;28;20698;-55
2022/03/07 00:53:34;;;;;;;6.87;5.97;;;3.40;1.00;;;;;;5092647;28;20191;-54
2022/03/07 00:55:59;;;;;;;7.00;5.80;;;3.30;1.00;;;;;;5092410;28;20194;-53
2022/03/07 00:58:25;;;;;;;7.77;6.97;;;3.20;1.00;;;;;;5090808;28;20241;-53
2022/03/07 01:00:50;;;;;;;7.17;6.47;;;3.30;1.00;;;;;;5093056;28;20162;-53
2022/03/07 01:03:17;;;;;;;8.00;6.53;;;3.30;1.00;;;;;;5093437;28;20191;-52
2022/03/07 01:05:46;;;;;;;6.10;5.57;;;;;;;;;;5091682;28;20557;-54
2022/03/07 01:08:12;;;;;;;7.60;6.80;;;3.30;1.00;;;;;;5091810;28;20440;-54
2022/03/07 01:10:38;;;;;;;7.00;6.30;;;3.30;1.00;;;;;;5093845;28;21018;-51
2022/03/07 01:13:05;;;;;;;8.03;7.23;;;3.20;1.00;;;;;;5093350;28;20186;-56
2022/03/07 01:15:31;;;;;;;6.40;5.77;;;3.20;1.00;;;;;;5091097;28;20510;-56
2022/03/07 01:17:59;;;;;;;7.20;6.00;;;3.20;1.00;;;;;;5093255;28;20936;-56
2022/03/07 01:20:28;;;;;;;7.47;6.03;;;3.20;1.00;;;;;;5091005;28;20671;-55
2022/03/07 01:22:54;;;;;;;7.90;6.70;;;3.30;1.00;;;;;;5092348;28;20451;-54
2022/03/07 01:25:19;;;;;;;7.23;5.80;;;3.30;1.00;;;;;;5091124;28;20468;-54
2022/03/07 01:27:45;;;;;;;7.67;5.97;;;3.30;1.00;;;;;;5087780;28;20182;-55
2022/03/07 01:30:10;;;;;;;6.17;5.47;;;3.30;1.00;;;;;;5091646;28;20571;-57
2022/03/07 01:32:36;;;;;;;6.57;5.57;;;3.30;1.00;;;;;;5089962;28;20329;-54
2022/03/07 01:35:03;;;;;;;9.97;5.97;;;3.40;1.00;;;;;;5090713;28;20278;-55
2022/03/07 01:37:30;;;;;;;6.93;6.23;;;3.30;1.00;;;;;;5086235;28;20444;-52
2022/03/07 01:39:55;;;;;;;8.23;6.70;;;3.30;1.00;;;;;;5091225;28;20509;-52
2022/03/07 01:42:21;;;;;;;8.57;6.63;;;3.30;1.00;;;;;;5090091;28;20448;-54
2022/03/07 01:44:47;;;;;;;7.83;6.23;;;;;;;;;;5088578;28;20214;-53
2022/03/07 01:47:12;;;;;;;6.53;5.37;;;3.40;1.00;;;;;;5091921;28;20174;-54
2022/03/07 01:49:38;;;;;;;8.37;6.43;;;3.40;1.00;;;;;;5092465;28;20441;-54
2022/03/07 01:52:04;;;;;;;7.70;6.27;;;3.30;1.00;;;;;;5098672;28;20213;-54
2022/03/07 01:54:30;;;;;;;8.47;6.37;;;3.20;1.00;;;;;;5091763;28;20186;-54
2022/03/07 01:56:56;;;;;;;6.73;6.03;;;3.20;1.00;;;;;;5089636;28;20833;-52
2022/03/07 01:59:24;;;;;;;8.83;5.60;;;3.20;1.00;;;;;;5098240;28;20640;-58
2022/03/07 02:01:50;;;;;;;8.57;6.20;;;3.20;1.00;;;;;;5093987;28;20444;-53
2022/03/07 02:04:16;;;;;;;5.80;5.20;;;3.20;1.00;;;;;;5088019;28;20554;-54
2022/03/07 02:06:43;;;;;;;7.80;6.40;;;3.20;1.00;;;;;;5085369;28;20527;-57
2022/03/07 02:09:10;;;;;;;7.90;6.83;;;3.10;1.00;;;;;;5083289;28;20183;-54
2022/03/07 02:11:36;;;;;;;9.87;7.80;;;3.10;1.00;;;;;;5090379;28;20433;-55
2022/03/07 02:14:18;;;;;;;8.20;6.97;;;3.00;1.00;;;;;;5092078;28;20444;-54
2022/03/07 02:16:44;;;;;;;7.50;6.47;;;2.90;1.00;;;;;;5091052;28;20440;-56
2022/03/07 02:19:11;;;;;;;10.83;7.37;;;2.90;1.00;;;;;;5102151;28;20497;-56
2022/03/07 02:21:43;;;;;;;8.60;6.33;;;3.00;1.00;;;;;;5097795;28;20456;-55
2022/03/07 02:24:09;;;;;;;8.93;6.23;;;3.00;1.00;;;;;;5099766;28;20877;-52
2022/03/07 02:26:35;;;;;;;9.70;6.50;;;;;;;;;;5092069;28;20459;-53
2022/03/07 02:29:00;;;;;;;8.80;6.70;;;3.00;1.00;;;;;;5088733;28;20186;-56
2022/03/07 02:31:26;;;;;;;6.80;6.10;;;3.00;1.00;;;;;;5089189;28;20630;-55
2022/03/07 02:33:52;;;;;;;9.13;6.20;;;;;;;;;;5087920;28;20267;-52
2022/03/07 02:36:18;;;;;;;8.33;6.87;;;3.00;1.00;;;;;;5089714;28;20632;-55
2022/03/07 02:38:43;;;;;;;7.27;6.47;;;2.90;1.00;;;;;;5091262;28;20452;-55
2022/03/07 02:41:09;;;;;;;6.53;5.93;;;2.90;1.00;;;;;;5097871;28;20182;-55
2022/03/07 02:43:35;;;;;;;7.40;5.53;;;3.00;1.00;;;;;;5090684;28;20183;-54
2022/03/07 02:46:01;;;;;;;8.37;6.90;;;3.00;1.00;;;;;;5090613;28;20183;-54
2022/03/07 02:48:30;;;;;;;7.73;6.50;;;3.00;1.00;;;;;;5085938;28;20614;-55
2022/03/07 02:50:58;;;;;;;8.50;6.47;;;2.90;1.00;;;;;;5085119;28;20668;-57
2022/03/07 02:53:24;;;;;;;7.97;6.40;;;2.90;1.00;;;;;;5085089;28;20252;-53
2022/03/07 02:55:50;;;;;;;7.23;6.53;;;2.90;1.00;;;;;;5084706;28;20448;-53
2022/03/07 02:58:16;;;;;;;6.87;5.73;;;2.90;1.00;;;;;;5084548;28;20459;-54
2022/03/07 03:00:42;;;;;;;6.57;5.87;;;;;;;;;;5083722;28;20203;-52
2022/03/07 03:03:07;;;;;;;8.87;6.80;;;3.10;1.00;;;;;;5084070;28;20186;-55
2022/03/07 03:05:34;;;;;;;8.93;6.40;;;3.10;1.00;;;;;;5082753;28;20475;-53
2022/03/07 03:07:59;;;;;;;9.33;7.20;;;3.10;1.00;;;;;;5084199;28;20235;-54
2022/03/07 03:10:25;;;;;;;9.07;6.47;;;3.10;1.00;;;;;;5084184;28;21028;-54
2022/03/07 03:12:51;;;;;;;7.43;6.50;;;3.10;1.00;;;;;;5084232;28;20198;-54
2022/03/07 03:15:17;;;;;;;11.30;6.83;;;2.90;1.00;;;;;;5084283;28;20194;-53
2022/03/07 03:17:44;;;;;;;10.43;7.20;;;3.00;1.00;;;;;;5095137;28;20456;-55
2022/03/07 03:20:11;;;;;;;8.60;6.20;;;2.90;1.00;;;;;;5088136;28;20498;-54
2022/03/07 03:22:38;;;;;;;7.60;6.73;;;2.90;1.00;;;;;;5088522;28;20445;-54
2022/03/07 03:25:04;;;;;;;9.23;6.70;;;2.90;1.00;;;;;;5089359;28;20865;-54
2022/03/07 03:27:30;;;;;;;7.70;6.60;;;2.90;1.00;;;;;;5084632;28;20533;-56
2022/03/07 03:29:55;;;;;;;7.20;6.50;;;2.90;1.00;;;;;;5088926;28;20436;-54
2022/03/07 03:32:21;;;;;;;9.30;6.10;;;2.80;1.00;;;;;;5090514;28;20552;-54
2022/03/07 03:34:47;;;;;;;10.50;7.30;;;;;;;;;;5091298;28;20179;-55
2022/03/07 03:37:12;;;;;;;8.53;6.10;;;2.70;1.00;;;;;;5098513;28;20196;-54
2022/03/07 03:39:38;;;;;;;8.03;7.23;;;2.60;1.00;;;;;;5088674;28;20573;-56
2022/03/07 03:42:04;;;;;;;8.17;6.40;;;2.70;1.00;;;;;;5088363;28;20226;-54
2022/03/07 03:44:30;;;;;;;7.70;6.60;;;2.70;1.00;;;;;;5088043;28;20206;-53
2022/03/07 03:46:55;;;;;;;8.47;6.80;;;2.70;1.00;;;;;;5086352;28;20456;-53
2022/03/07 03:49:21;;;;;;;7.10;6.40;;;2.80;1.00;;;;;;5083531;28;20207;-53
2022/03/07 03:51:46;;;;;;;10.03;6.70;;;2.80;1.00;;;;;;5089824;28;20357;-52
2022/03/07 03:54:12;;;;;;;10.00;6.97;;;2.70;1.00;;;;;;5087829;28;20197;-56
2022/03/07 03:56:37;;;;;;;9.10;6.73;;;2.80;1.00;;;;;;5090721;28;20198;-55
2022/03/07 03:59:03;;;;;;;11.10;7.00;;;2.80;1.00;;;;;;5089021;28;20244;-56
2022/03/07 04:01:28;;;;;;;7.47;6.63;;;2.90;1.00;;;;;;5091507;28;20336;-54
2022/03/07 04:03:54;;;;;;;11.00;7.30;;;2.80;1.00;;;;;;5094001;28;20221;-53
2022/03/07 04:06:20;;;;;;;8.77;6.73;;;2.90;1.00;;;;;;5097564;28;20183;-55
2022/03/07 04:08:51;;;;;;;8.73;7.43;;;2.80;1.00;;;;;;5098167;28;20196;-53
2022/03/07 04:11:17;;;;;;;7.90;6.00;;;2.90;1.00;;;;;;5097159;28;20544;-54
2022/03/07 04:13:43;;;;;;;9.07;6.83;;;2.90;1.00;;;;;;5094678;28;20447;-54
2022/03/07 04:16:10;;;;;;;7.40;6.63;;;2.90;1.00;;;;;;5099414;28;20439;-53
2022/03/07 04:18:36;;;;;;;8.73;6.53;;;2.90;1.00;;;;;;5100117;28;20577;-55
2022/03/07 04:21:04;;;;;;;7.70;7.00;;;2.90;1.00;;;;;;5093175;28;20451;-56
2022/03/07 04:23:29;;;;;;;7.60;6.47;;;2.90;1.00;;;;;;5100536;28;20194;-55
2022/03/07 04:25:55;;;;;;;7.30;6.60;;;2.90;1.00;;;;;;5090152;27;20595;-54
2022/03/07 04:28:20;;;;;;;7.97;6.30;;;2.70;1.00;;;;;;5106826;28;20186;-56
2022/03/07 04:30:46;;;;;;;8.37;6.60;;;;;;;;;;5094151;28;20223;-53
2022/03/07 04:33:12;;;;;;;7.80;6.30;;;2.80;1.00;;;;;;5092744;28;20209;-57
2022/03/07 04:35:38;;;;;;;10.50;7.40;;;;;;;;;;5087629;28;20486;-56
2022/03/07 04:38:04;;;;;;;7.63;6.93;;;2.80;1.00;;;;;;5082871;28;20235;-54
2022/03/07 04:40:30;;;;;;;7.43;6.50;;;2.80;1.00;;;;;;5087708;28;20445;-55
2022/03/07 04:42:58;;;;;;;11.00;6.80;;;2.70;1.00;;;;;;5084979;28;20201;-56
2022/03/07 04:45:24;;;;;;;9.30;6.90;;;2.80;1.00;;;;;;5087038;28;20214;-56
2022/03/07 04:47:50;;;;;;;9.53;7.23;;;;;;;;;;5085980;28;20443;-52
2022/03/07 04:50:16;;;;;;;7.23;6.40;;;2.70;1.00;;;;;;5086812;28;20194;-56
2022/03/07 04:52:42;;;;;;;7.33;6.57;;;2.70;1.00;;;;;;5086777;28;20445;-57
2022/03/07 04:55:10;;;;;;;7.37;6.17;;;2.70;1.00;;;;;;5096705;28;20210;-55
2022/03/07 04:57:36;;;;;;;7.63;6.40;;;2.80;1.00;;;;;;5089674;28;20632;-55
2022/03/07 05:00:07;;;;;;;10.50;6.63;;;2.70;1.00;;;;;;5093609;28;20457;-56
2022/03/07 05:02:32;;;;;;;7.00;5.97;;;2.70;1.00;;;;;;5097613;28;20922;-55
2022/03/07 05:04:58;;;;;;;6.90;6.20;;;2.50;1.00;;;;;;5091879;28;20463;-56
2022/03/07 05:07:24;;;;;;;9.47;7.00;;;;;;;;;;5092985;28;20743;-52
2022/03/07 05:09:50;;;;;;;6.87;6.17;;;2.60;1.00;;;;;;5091157;28;20206;-56
2022/03/07 05:12:15;;;;;;;8.90;6.20;;;2.70;1.00;;;;;;5093856;28;20572;-54
2022/03/07 05:14:41;;;;;;;6.93;6.17;;;;;;;;;;5093276;28;20262;-53
2022/03/07 05:17:07;;;;;;;7.63;6.40;;;2.40;1.00;;;;;;5110778;28;20665;-54
2022/03/07 05:19:32;;;;;;;8.07;6.03;;;2.40;1.00;;;;;;5112659;28;20445;-55
2022/03/07 05:21:58;;;;;;;8.30;5.70;;;2.30;1.00;;;;;;5106434;28;20194;-55
2022/03/07 05:24:25;;;;;;;7.53;6.03;;;2.30;1.00;;;;;;5093109;28;20209;-53
2022/03/07 05:26:51;;;;;;;7.80;5.60;;;;;;;;;;5093942;28;20183;-54
2022/03/07 05:29:17;;;;;;;8.17;6.27;;;;;;;;;;5097579;28;20478;-53
2022/03/07 05:31:43;;;;;;;8.60;6.40;;;2.50;1.00;;;;;;5100442;28;20504;-53
2022/03/07 05:34:08;;;;;;;7.57;5.87;;;2.50;1.00;;;;;;5095756;28;20522;-53
2022/03/07 05:36:34;;;;;;;6.87;6.17;;;;;;;;;;5108612;28;20218;-56
2022/03/07 05:39:00;;;;;;;6.80;4.63;;;2.60;1.00;;;;;;5091461;28;20182;-55
2022/03/07 05:41:25;;;;;;;6.93;6.07;;;2.60;1.00;;;;;;5096640;28;20467;-55
2022/03/07 05:43:51;;;;;;;7.37;6.03;;;2.60;1.00;;;;;;5092780;28;20228;-55
2022/03/07 05:46:16;;;;;;;6.17;5.57;;;2.60;1.00;;;;;;5095712;28;20293;-55
2022/03/07 05:48:42;;;;;;;6.43;4.70;;;2.50;1.00;;;;;;5091350;28;20627;-55
2022/03/07 05:51:08;;;;;;;7.07;5.40;;;2.50;1.00;;;;;;5092051;28;20182;-54
2022/03/07 05:53:34;;;;;;;6.63;5.20;;;;;;;;;;5094682;28;20182;-55
2022/03/07 05:55:59;;;;;;;8.50;6.13;;;2.70;1.00;;;;;;5091745;28;20191;-57
2022/03/07 05:58:25;;;;;;;6.57;5.70;;;2.50;1.00;;;;;;5094430;28;20447;-58
2022/03/07 06:00:50;;;;;;;6.27;5.60;;;2.50;1.00;;;;;;5092300;28;20235;-53
2022/03/07 06:03:16;;;;;;;6.53;4.80;;;2.50;1.00;;;;;;5092266;28;20250;-56
2022/03/07 06:05:42;;;;;;;8.73;7.33;;;;;;;;;;5093433;28;20235;-56
2022/03/07 06:08:07;;;;;;;7.30;6.20;;;2.60;1.00;;;;;;5098655;28;20261;-56
2022/03/07 06:10:33;;;;;;;7.20;5.70;;;2.50;1.00;;;;;;5091208;28;20543;-54
2022/03/07 06:12:59;;;;;;;7.23;6.20;;;2.50;1.00;;;;;;5092381;28;20183;-57
2022/03/07 06:15:25;;;;;;;8.23;6.50;;;;;;;;;;5093633;28;20598;-53
2022/03/07 06:17:52;;;;;;;8.77;6.03;;;2.50;1.00;;;;;;5099262;28;20448;-53
2022/03/07 06:20:22;;;;;;;10.20;7.00;;;2.40;1.00;;;;;;5092136;28;20517;-53
2022/03/07 06:22:48;;;;;;;8.27;5.73;;;2.50;1.00;;;;;;5097073;28;20472;-54
2022/03/07 06:25:15;;;;;;;10.37;6.87;;;;;;;;;;5089441;28;20467;-54
2022/03/07 06:27:40;;;;;;;7.70;5.93;;;;;;;;;;5089479;28;20447;-57
2022/03/07 06:30:08;;;;;;;8.37;6.43;;;2.40;1.00;;;;;;5092716;28;20456;-56
2022/03/07 06:32:34;;;;;;;7.23;6.13;;;2.40;1.00;;;;;;5096436;28;20449;-54
2022/03/07 06:35:00;;;;;;;6.83;6.00;;;;;;;;;;5089682;28;20457;-57
2022/03/07 06:37:26;;;;;;;10.13;6.60;;;2.50;1.00;;;;;;5096587;28;20445;-56
2022/03/07 06:39:51;;;;;;;9.43;6.47;;;2.50;1.00;;;;;;5087367;28;20934;-56
2022/03/07 06:42:17;;;;;;;7.60;5.73;;;;;;;;;;5090131;28;20183;-54
2022/03/07 06:44:43;;;;;;;8.07;6.97;;;;;;;;;;5091417;28;20234;-56
2022/03/07 06:47:10;;;;;;;7.10;6.40;;;2.50;1.00;;;;;;5092678;28;20441;-57
2022/03/07 06:49:35;;;;;;;11.00;6.43;;;2.60;1.00;;;;;;5102727;28;20439;-54
2022/03/07 06:52:02;;;;;;;7.60;6.70;;;2.70;1.00;;;;;;5090687;28;20539;-54
2022/03/07 06:54:28;;;;;;;9.57;7.10;;;2.80;1.00;;;;;;5090228;28;20666;-54
2022/03/07 06:56:54;;;;;;;8.57;6.27;;;2.80;1.00;;;;;;5096591;28;20496;-55
2022/03/07 06:59:20;;;;;;;7.10;6.40;;;2.90;1.00;;;;;;5104310;28;20452;-55
2022/03/07 07:01:45;;;;;;;7.57;6.23;;;3.00;1.00;;;;;;5092211;28;20447;-57
2022/03/07 07:04:11;;;;;;;8.50;6.57;;;3.10;1.00;;;;;;5089765;28;20199;-54
2022/03/07 07:06:37;;;;;;;13.20;6.87;;;;;;;;;;5090445;28;20191;-54
2022/03/07 07:09:03;;;;;;;7.93;5.77;;;3.10;1.00;;;;;;5094315;28;20232;-55
2022/03/07 07:11:29;;;;;;;10.43;6.50;;;;;;;;;;5090050;28;20459;-56
2022/03/07 07:13:54;;;;;;;6.90;6.10;;;;;;;;;;5094661;28;20954;-55
2022/03/07 07:16:20;;;;;;;7.50;6.30;;;3.10;1.00;;;;;;5094043;28;20440;-56
2022/03/07 07:18:46;;;;;;;6.60;5.90;;;3.10;1.00;;;;;;5099480;28;20433;-55
2022/03/07 07:21:12;;;;;;;8.83;6.60;;;;;;;;;;5098828;28;20616;-57
2022/03/07 07:23:37;;;;;;;6.83;6.03;;;3.40;1.00;;;;;;5099346;28;20364;-55
2022/03/07 07:26:06;;;;;;;8.93;6.13;;;3.40;1.00;;;;;;5089694;28;20468;-54
2022/03/07 07:28:32;;;;;;;7.07;6.37;;;3.60;1.00;;;;;;5092140;28;20179;-54
2022/03/07 07:30:58;;;;;;;12.67;7.77;;;;;;;;;;5096357;28;20472;-54
2022/03/07 07:33:24;;;;;;;10.40;6.63;;;;;;;;;;5093764;28;20527;-57
2022/03/07 07:35:50;;;;;;;8.47;5.57;;;3.40;1.00;;;;;;5089053;28;20598;-56
2022/03/07 07:38:16;;;;;;;7.17;6.47;;;;;;;;;;5100779;28;20455;-55
2022/03/07 07:40:42;;;;;;;8.57;6.90;;;;;;;;;;5089952;28;20190;-55
2022/03/07 07:43:07;;;;;;;9.60;5.83;;;3.00;1.00;;;;;;5090076;28;20945;-56
2022/03/07 07:45:33;;;;;;;8.40;6.67;;;3.00;1.00;;;;;;5089655;28;20471;-56
2022/03/07 07:47:59;;;;;;;11.10;7.07;;;;;;;;;;5089939;28;20198;-55
2022/03/07 07:50:25;;;;;;;12.03;6.47;;;3.30;1.00;;;;;;5089821;28;20713;-53
2022/03/07 07:52:51;;;;;;;6.60;5.90;;;3.30;1.00;;;;;;5096773;28;20511;-53
2022/03/07 07:55:17;;;;;;;7.90;7.13;;;;;;;;;;5088772;28;20451;-56
2022/03/07 07:57:43;;;;;;;6.77;5.83;;;3.10;1.00;;;;;;5091841;28;20222;-57
2022/03/07 08:00:10;;;;;;;9.27;6.77;;;3.30;1.00;;;;;;5092257;28;20441;-54
2022/03/07 08:02:36;;;;;;;9.00;6.77;;;3.40;1.00;;;;;;5100173;28;20194;-56
2022/03/07 08:05:03;;;;;;;8.17;6.73;;;3.70;1.00;;;;;;5104627;28;20491;-56
2022/03/07 08:07:29;;;;;;;9.10;6.67;;;3.90;1.00;;;;;;5095954;28;20452;-55
2022/03/07 08:09:55;;;;;;;7.13;5.80;;;;;;;;;;5111860;28;20427;-56
2022/03/07 08:12:21;;;;;;;7.83;6.70;;;;;;;;;;5101071;28;20433;-56
2022/03/07 08:14:46;;;;;;;7.97;6.40;;;3.90;1.00;;;;;;5093928;28;20463;-53
2022/03/07 08:17:12;;;;;;;8.20;6.20;;;4.20;1.00;;;;;;5095263;28;20498;-53
2022/03/07 08:19:38;;;;;;;7.80;6.07;;;4.20;1.00;;;;;;5100398;28;20261;-54
2022/03/07 08:22:05;;;;;;;7.27;6.50;;;;;;;;;;5096583;28;20192;-56
2022/03/07 08:24:31;;;;;;;11.20;8.10;;;4.50;1.00;;;;;;5110059;28;20518;-52
2022/03/07 08:26:57;;;;;;;7.00;6.30;;;4.50;1.00;;;;;;5093143;28;20468;-55
2022/03/07 08:29:23;;;;;;;8.90;6.97;;;4.50;1.00;;;;;;5093336;28;21009;-54
2022/03/07 08:31:48;;;;;;;7.07;6.03;;;4.50;1.00;;;;;;5091932;28;20552;-52
2022/03/07 08:34:14;;;;;;;7.60;6.07;;;;;;;;;;5093080;28;20208;-54
2022/03/07 08:36:40;;;;;;;8.87;6.97;;;4.60;1.00;;;;;;5097968;28;20190;-55
2022/03/07 08:39:06;;;;;;;7.47;5.93;;;4.70;1.00;;;;;;5113732;28;20509;-56
2022/03/07 08:41:31;;;;;;;8.93;6.33;;;4.80;1.00;;;;;;5113664;28;20182;-55
2022/03/07 08:43:57;;;;;;;7.87;5.27;;;4.80;1.00;;;;;;5109573;28;20262;-54
2022/03/07 08:46:24;;;;;;;6.50;5.83;;;;;;;;;;5113358;28;20209;-56
2022/03/07 08:48:50;;;;;;;6.70;5.87;;;4.90;1.00;;;;;;5113792;27;20182;-54
2022/03/07 08:51:15;;;;;;;6.37;5.57;;;4.90;1.00;;;;;;5102557;28;20459;-53
2022/03/07 08:53:41;;;;;;;9.37;6.23;;;5.00;1.00;;;;;;5096875;28;20186;-54
2022/03/07 08:56:06;;;;;;;9.33;5.90;;;5.20;1.00;;;;;;5113414;28;20188;-53
2022/03/07 08:58:32;;;;;;;7.33;5.73;;;5.50;1.00;;;;;;5106054;28;20178;-54
2022/03/07 09:00:58;;;;;;;7.13;6.23;;;;;;;;;;5100686;28;20310;-56
2022/03/07 09:03:23;;;;;;;6.10;5.53;;;5.60;1.00;;;;;;5094813;28;20560;-54
2022/03/07 09:05:49;;;;;;;7.00;5.40;;;;;;;;;;5106102;28;20468;-55
2022/03/07 09:08:15;;;;;;;11.00;5.50;;;;;;;;;;5101568;28;20287;-56
2022/03/07 09:10:41;;;;;;;7.57;5.30;;;5.80;1.00;;;;;;5092595;28;20532;-55
2022/03/07 09:13:06;;;;;;;5.40;4.83;;;6.00;1.00;;;;;;5093224;28;20445;-56
2022/03/07 09:15:32;;;;;;;6.40;5.43;;;6.00;1.00;;;;;;5092503;28;20175;-54
2022/03/07 09:17:58;;;;;;;8.57;5.50;;;;;;;;;;5092656;28;20218;-53
2022/03/07 09:20:23;;;;;;;5.83;4.73;;;5.90;1.00;;;;;;5092581;28;20208;-53
2022/03/07 09:22:49;;;;;;;6.90;5.27;;;6.20;1.00;;;;;;5091721;28;20444;-57
2022/03/07 09:25:15;;;;;;;5.67;4.60;;;6.40;1.00;;;;;;5099135;28;20232;-55
2022/03/07 09:27:42;;;;;;;6.60;4.90;;;6.40;1.00;;;;;;5096998;28;20190;-55
2022/03/07 09:30:09;;;;;;;7.63;4.30;;;6.40;1.00;;;;;;5098731;28;20476;-55
2022/03/07 09:32:35;;;;;;;9.73;6.50;;;6.80;1.00;;;;;;5111273;28;20443;-56
2022/03/07 09:35:01;;;;;;;10.07;5.90;;;6.50;1.00;;;;;;5107102;28;20470;-54
2022/03/07 09:37:26;;;;;;;7.73;5.10;;;6.40;1.00;;;;;;5092405;28;20489;-55
2022/03/07 09:39:52;;;;;;;5.10;4.60;;;6.40;1.00;;;;;;5091947;28;20274;-53
2022/03/07 09:42:17;;;;;;;6.20;4.57;;;6.60;1.00;;;;;;5092257;28;20183;-54
2022/03/07 09:44:43;;;;;;;5.73;5.13;;;7.00;1.00;;;;;;5092915;28;20198;-54
2022/03/07 09:47:09;;;;;;;5.77;5.00;;;6.90;1.00;;;;;;5109579;28;20186;-56
2022/03/07 09:49:35;;;;;;;6.20;5.37;;;6.90;1.00;;;;;;5092248;28;20217;-52
2022/03/07 09:52:01;;;;;;;5.73;5.17;;;6.90;1.00;;;;;;5091334;28;20540;-56
2022/03/07 09:54:26;;;;;;;5.20;4.73;;;7.00;1.00;;;;;;5091950;28;20664;-55
2022/03/07 09:56:53;;;;;;;6.40;5.07;;;7.20;1.00;;;;;;5108676;28;20521;-53
2022/03/07 09:59:20;;;;;;;7.13;5.47;;;7.10;1.00;;;;;;5092078;28;20201;-53
2022/03/07 10:02:04;;;;;;;12.10;6.03;;;7.10;1.00;;;;;;5091737;28;20425;-53
2022/03/07 10:04:31;;;;;;;23.33;7.40;;;7.20;1.00;;;;;;5091820;28;20476;-54
2022/03/07 10:06:57;;;;;;;6.33;5.50;;;7.40;1.00;;;;;;5090240;28;20440;-56
2022/03/07 10:09:24;;;;;;;6.80;5.20;;;7.60;1.00;;;;;;5087702;28;20434;-54
2022/03/07 10:11:52;;;;;;;6.13;5.40;;;7.40;1.00;;;;;;5091506;28;20364;-55
2022/03/07 10:14:17;;;;;;;8.50;5.60;;;7.40;1.00;;;;;;5091565;28;20445;-54
2022/03/07 10:16:45;;;;;;;6.63;5.30;;;7.50;1.00;;;;;;5091111;28;20443;-53
2022/03/07 10:19:14;;;;;;;6.10;5.50;;;7.50;1.00;;;;;;5089380;28;20219;-54
2022/03/07 10:21:48;;;;;;;7.60;5.57;;;7.40;1.00;;;;;;5090963;28;21070;-54
2022/03/07 10:24:14;;;;;;;5.63;4.90;;;7.80;1.00;;;;;;5091217;28;20549;-53
2022/03/07 10:26:40;;;;;;;5.17;4.60;;;8.40;1.00;;;;;;5091434;28;20436;-54
2022/03/07 10:29:06;;;;;;;6.20;4.40;;;8.60;1.00;;;;;;5091216;28;20319;-53
2022/03/07 10:31:32;;;;;;;8.10;5.53;;;8.70;1.00;;;;;;5087356;28;20309;-54
2022/03/07 10:34:09;;;;;;;7.30;5.77;;;9.00;1.00;;;;;;5102391;28;20446;-55
2022/03/07 10:36:36;;;;;;;5.30;4.73;;;8.90;1.00;;;;;;5095268;28;20439;-55
2022/03/07 10:39:08;;;;;;;4.93;4.30;;;8.60;1.00;;;;;;5111354;28;20414;-54
2022/03/07 10:41:42;;;;;;;6.40;5.47;;;8.50;1.00;;;;;;5111164;28;20439;-54
2022/03/07 10:44:11;;;;;;;6.83;5.07;;;8.40;1.00;;;;;;5111436;27;20484;-55
2022/03/07 10:46:38;;;;;;;6.07;4.23;;;8.20;1.00;;;;;;5105354;28;20526;-54
2022/03/07 10:49:07;;;;;;;8.43;4.43;;;8.30;1.00;;;;;;5111176;27;21908;-54
2022/03/07 10:51:33;;;;;;;6.00;4.57;;;;;;;;;;5111115;28;20447;-53
2022/03/07 10:54:11;;;;;;;7.80;4.40;;;8.20;1.00;;;;;;5104743;28;20930;-56
2022/03/07 10:56:57;;;;;;;5.30;4.70;;;8.40;1.00;;;;;;5091093;28;20482;-56
2022/03/07 10:59:30;;;;;;;8.00;5.07;;;8.40;1.00;;;;;;5089321;28;20456;-56
2022/03/07 11:02:06;;;;;;;5.83;5.20;;;8.50;1.00;;;;;;5090911;28;20417;-53
2022/03/07 11:04:33;;;;;;;8.80;5.13;;;8.80;1.00;;;;;;5090315;28;20513;-55
2022/03/07 11:06:59;;;;;;;9.53;5.60;;;8.60;1.00;;;;;;5090671;28;20469;-53
2022/03/07 11:09:25;;;;;;;5.70;5.17;;;8.50;1.00;;;;;;5088099;28;20468;-53
2022/03/07 11:11:51;;;;;;;10.87;5.97;;;8.90;1.00;;;;;;5102892;28;20277;-54
2022/03/07 11:14:17;;;;;;;5.50;4.67;;;;;;;;;;5103417;28;20189;-56
2022/03/07 11:16:45;;;;;;;6.93;5.30;;;9.80;1.00;;;;;;5090453;28;20461;-56
2022/03/07 11:19:12;;;;;;;7.20;5.10;;;9.60;1.00;;;;;;5105295;28;20438;-55
2022/03/07 11:21:41;;;;;;;5.70;4.90;;;9.70;1.00;;;;;;5110597;28;20533;-55
2022/03/07 11:24:07;;;;;;;26.97;9.07;;;9.30;1.00;;;;;;5110774;28;20904;-54
2022/03/07 11:26:33;;;;;;;13.57;6.13;;;;;;;;;;5110679;28;20531;-55
2022/03/07 11:28:59;;;;;;;10.07;4.67;;;9.10;1.00;;;;;;5110579;28;20527;-53
2022/03/07 11:31:27;;;;;;;8.80;6.00;;;9.00;1.00;;;;;;5110320;28;20571;-56
2022/03/07 11:33:54;;;;;;;8.10;5.47;;;9.10;1.00;;;;;;5108168;27;20194;-53
2022/03/07 11:36:24;;;;;;;6.50;5.67;;;9.00;1.00;;;;;;5100598;28;20793;-55
2022/03/07 11:38:59;;;;;;;6.10;5.50;;;8.70;1.00;;;;;;5108434;28;20520;-56
2022/03/07 11:41:28;;;;;;;5.80;5.20;;;8.70;1.00;;;;;;5094307;28;20970;-53
2022/03/07 11:44:00;;;;;;;6.90;5.63;;;8.70;1.00;;;;;;5094077;28;20428;-53
2022/03/07 11:46:32;;;;;;;9.00;6.10;;;8.70;1.00;;;;;;5092253;28;20483;-56
2022/03/07 11:48:58;;;;;;;7.60;5.83;;;8.50;1.00;;;;;;5094229;28;20439;-54
2022/03/07 11:51:26;;;;;;;7.30;5.70;;;8.00;1.00;;;;;;5094228;28;20527;-54
2022/03/07 11:53:54;;;;;;;6.33;5.73;;;8.10;1.00;;;;;;5094005;28;20439;-53
2022/03/07 11:56:27;;;;;;;7.43;5.20;;;8.20;1.00;;;;;;5094032;28;20432;-54
2022/03/07 11:58:55;;;;;;;7.80;5.80;;;8.60;1.00;;;;;;5113245;28;20514;-54
2022/03/07 12:01:23;;;;;;;6.73;5.80;;;8.80;1.00;;;;;;5114330;28;20427;-55
2022/03/07 12:03:49;;;;;;;7.07;5.80;;;9.00;1.00;;;;;;5104604;28;20485;-55
2022/03/07 12:06:17;;;;;;;7.00;5.23;;;8.80;1.00;;;;;;5101728;28;20549;-53
2022/03/07 12:08:54;;;;;;;7.50;5.50;;;8.90;1.00;;;;;;5104346;28;20453;-54
2022/03/07 12:11:26;;;;;;;6.37;5.77;;;8.70;1.00;;;;;;5091434;28;20525;-54
2022/03/07 12:13:53;;;;;;;5.23;4.73;;;8.70;1.00;;;;;;5093925;28;20828;-54
2022/03/07 12:16:49;;;;;;;8.17;5.07;;;8.80;1.00;;;;;;5098738;28;20527;-55
2022/03/07 12:19:22;;;;;;;6.30;5.13;;;8.90;1.00;;;;;;5081989;28;20415;-54
2022/03/07 12:21:48;;;;;;;5.63;5.13;;;;;;;;;;5093503;28;20472;-56
2022/03/07 12:24:17;;;;;;;5.53;4.90;;;8.80;1.00;;;;;;5093772;28;20468;-53
2022/03/07 12:26:52;;;;;;;5.00;4.50;;;8.90;1.00;;;;;;5092092;28;20441;-55
2022/03/07 12:29:20;;;;;;;5.43;4.93;;;8.80;1.00;;;;;;5093449;28;20878;-54
2022/03/07 12:31:54;;;;;;;5.20;4.70;;;8.70;1.00;;;;;;5093590;28;20479;-54
2022/03/07 12:34:31;;;;;;;5.60;4.83;;;8.60;1.00;;;;;;5092777;28;20452;-53
2022/03/07 12:37:10;;;;;;;5.80;5.10;;;8.30;1.00;;;;;;5093558;28;20557;-55
2022/03/07 12:39:43;;;;;;;5.60;4.67;;;8.20;1.00;;;;;;5091450;28;20467;-55
2022/03/07 12:42:09;;;;;;;6.67;5.20;;;8.40;1.00;;;;;;5092815;28;21037;-55
2022/03/07 12:44:37;;;;;;;8.87;6.23;;;8.60;1.00;;;;;;5093028;28;20563;-54
2022/03/07 12:47:03;;;;;;;7.53;5.37;;;8.30;1.00;;;;;;5093223;28;20699;-53
2022/03/07 12:49:28;;;;;;;4.97;4.47;;;8.00;1.00;;;;;;5093184;28;20524;-54
2022/03/07 12:51:54;;;;;;;7.90;5.40;;;8.10;1.00;;;;;;5096541;28;20193;-55
2022/03/07 12:54:28;;;;;;;7.20;5.93;;;7.70;1.00;;;;;;5113519;28;20194;-56
2022/03/07 12:56:54;;;;;;;8.43;4.80;;;8.10;1.00;;;;;;5113171;28;20212;-55
2022/03/07 12:59:28;;;;;;;9.73;5.50;;;8.10;1.00;;;;;;5105405;28;20468;-54
2022/03/07 13:01:55;;;;;;;8.00;4.83;;;8.20;1.00;;;;;;5093057;28;20327;-55
2022/03/07 13:04:25;;;;;;;7.13;5.10;;;8.20;1.00;;;;;;5092698;28;20552;-52
2022/03/07 13:06:55;;;;;;;6.40;4.53;;;8.50;1.00;;;;;;5092716;28;20467;-54
2022/03/07 13:09:30;;;;;;;6.80;5.10;;;9.00;1.00;;;;;;5092896;28;20444;-55
2022/03/07 13:11:56;;;;;;;5.17;3.97;;;9.10;1.00;;;;;;5093567;28;20497;-56
2022/03/07 13:14:24;;;;;;;4.83;4.33;;;9.20;1.00;;;;;;5111754;28;20443;-55
2022/03/07 13:16:51;;;;;;;4.90;4.50;;;9.30;1.00;;;;;;5101968;28;20445;-54